createdAt,value
2022-09-12T00:01:22.501Z,6.33
2022-09-12T00:03:51.404Z,6.80
2022-09-12T00:06:28.823Z,6.00
2022-09-12T00:08:56.659Z,5.17
2022-09-12T00:11:23.253Z,6.30
2022-09-12T00:13:50.242Z,7.50
2022-09-12T00:16:24.560Z,6.53
2022-09-12T00:18:51.457Z,8.23
2022-09-12T00:21:18.452Z,6.83
2022-09-12T00:23:45.109Z,6.90
2022-09-12T00:26:11.669Z,6.07
2022-09-12T00:28:38.987Z,5.90
2022-09-12T00:31:06.766Z,6.20
2022-09-12T00:33:33.565Z,6.27
2022-09-12T00:36:00.194Z,6.77
2022-09-12T00:38:26.644Z,5.40
2022-09-12T00:40:53.193Z,6.00
2022-09-12T00:43:39.315Z,5.60
2022-09-12T00:46:26.024Z,5.90
2022-09-12T00:48:55.582Z,6.60
2022-09-12T00:51:22.367Z,6.00
2022-09-12T00:53:50.665Z,6.37
2022-09-12T00:56:18.563Z,8.93
2022-09-12T00:58:51.135Z,9.90
2022-09-12T01:01:17.990Z,8.67
2022-09-12T01:03:44.728Z,8.60
2022-09-12T01:06:16.328Z,8.90
2022-09-12T01:08:43.685Z,8.30
2022-09-12T01:11:11.187Z,7.00
2022-09-12T01:13:37.674Z,19.97
2022-09-12T01:16:05.964Z,16.50
2022-09-12T01:18:41.948Z,11.37
2022-09-12T01:21:08.500Z,9.47
2022-09-12T01:23:53.756Z,6.07
2022-09-12T01:26:29.355Z,4.50
2022-09-12T01:29:15.392Z,4.60
2022-09-12T01:31:48.242Z,5.70
2022-09-12T01:34:20.769Z,5.10
2022-09-12T01:36:57.918Z,4.80
2022-09-12T01:39:27.937Z,5.27
2022-09-12T01:41:54.532Z,5.07
2022-09-12T01:44:24.281Z,5.50
2022-09-12T01:46:50.712Z,4.50
2022-09-12T01:49:23.278Z,4.33
2022-09-12T01:52:00.065Z,4.10
2022-09-12T01:54:30.425Z,5.30
2022-09-12T01:56:58.656Z,5.30
2022-09-12T01:59:25.131Z,4.50
2022-09-12T02:01:58.452Z,4.87
2022-09-12T02:04:30.053Z,4.70
2022-09-12T02:07:02.950Z,4.83
2022-09-12T02:09:32.145Z,6.33
2022-09-12T02:12:00.180Z,6.03
2022-09-12T02:14:37.034Z,5.63
2022-09-12T02:17:09.887Z,5.13
2022-09-12T02:19:44.410Z,4.90
2022-09-12T02:22:13.820Z,4.93
2022-09-12T02:24:42.271Z,7.10
2022-09-12T02:27:14.877Z,6.37
2022-09-12T02:29:41.692Z,4.23
2022-09-12T02:32:15.436Z,5.90
2022-09-12T02:34:52.843Z,5.10
2022-09-12T02:37:32.469Z,4.77
2022-09-12T02:39:59.455Z,5.10
2022-09-12T02:42:25.975Z,4.73
2022-09-12T02:44:53.848Z,5.50
2022-09-12T02:47:23.819Z,5.07
2022-09-12T02:49:50.375Z,5.07
2022-09-12T02:52:16.932Z,4.17
2022-09-12T02:54:43.618Z,5.13
2022-09-12T02:57:22.841Z,5.00
2022-09-12T02:59:50.556Z,6.23
2022-09-12T03:02:17.018Z,5.40
2022-09-12T03:04:55.850Z,6.20
2022-09-12T03:07:31.636Z,5.07
2022-09-12T03:10:01.670Z,5.53
2022-09-12T03:12:46.943Z,5.20
2022-09-12T03:15:13.479Z,9.60
2022-09-12T03:17:46.075Z,6.00
2022-09-12T03:20:18.103Z,6.17
2022-09-12T03:22:55.745Z,6.60
2022-09-12T03:25:25.487Z,5.50
2022-09-12T03:27:56.276Z,7.10
2022-09-12T03:30:22.973Z,7.40
2022-09-12T03:32:51.071Z,5.23
2022-09-12T03:35:22.870Z,7.83
2022-09-12T03:37:50.157Z,10.20
2022-09-12T03:40:16.862Z,8.87
2022-09-12T03:42:43.335Z,8.90
2022-09-12T03:45:10.051Z,8.00
2022-09-12T03:47:36.669Z,8.40
2022-09-12T03:50:03.845Z,5.93
2022-09-12T03:52:30.386Z,5.50
2022-09-12T03:54:56.831Z,5.87
2022-09-12T03:57:23.394Z,5.90
2022-09-12T03:59:52.753Z,6.40
2022-09-12T04:02:19.292Z,6.13
2022-09-12T04:04:47.922Z,4.83
2022-09-12T04:07:15.179Z,5.40
2022-09-12T04:09:41.608Z,5.13
2022-09-12T04:12:08.092Z,6.60
2022-09-12T04:14:34.547Z,7.37
2022-09-12T04:17:01.117Z,6.80
2022-09-12T04:19:27.672Z,6.70
2022-09-12T04:21:54.140Z,6.70
2022-09-12T04:24:20.603Z,6.00
2022-09-12T04:26:47.122Z,7.50
2022-09-12T04:29:15.035Z,7.97
2022-09-12T04:31:41.884Z,6.20
2022-09-12T04:34:08.778Z,8.50
2022-09-12T04:36:35.623Z,7.07
2022-09-12T04:39:02.267Z,9.00
2022-09-12T04:41:33.305Z,8.83
2022-09-12T04:44:04.245Z,6.87
2022-09-12T04:46:31.802Z,9.20
2022-09-12T04:48:58.464Z,6.40
2022-09-12T04:51:27.809Z,8.90
2022-09-12T04:54:02.071Z,6.83
2022-09-12T04:56:29.051Z,5.27
2022-09-12T04:58:59.304Z,6.20
2022-09-12T05:01:26.297Z,5.27
2022-09-12T05:03:52.933Z,7.10
2022-09-12T05:06:23.973Z,8.37
2022-09-12T05:08:51.140Z,6.40
2022-09-12T05:11:24.094Z,7.00
2022-09-12T05:13:51.840Z,6.23
2022-09-12T05:16:18.837Z,6.43
2022-09-12T05:18:46.707Z,7.10
2022-09-12T05:21:14.497Z,7.37
2022-09-12T05:23:41.330Z,7.93
2022-09-12T05:26:08.182Z,6.47
2022-09-12T05:28:35.967Z,7.07
2022-09-12T05:31:08.651Z,7.60
2022-09-12T05:33:36.324Z,6.57
2022-09-12T05:36:03.356Z,7.37
2022-09-12T05:38:29.788Z,6.67
2022-09-12T05:41:03.731Z,6.20
2022-09-12T05:43:30.287Z,7.47
2022-09-12T05:46:08.800Z,6.43
2022-09-12T05:48:36.906Z,6.97
2022-09-12T05:51:07.089Z,8.20
2022-09-12T05:53:33.571Z,7.93
2022-09-12T05:56:04.151Z,7.90
2022-09-12T05:58:30.622Z,5.80
2022-09-12T06:01:01.352Z,7.57
2022-09-12T06:03:27.792Z,5.83
2022-09-12T06:05:54.351Z,5.73
2022-09-12T06:08:20.764Z,4.90
2022-09-12T06:10:47.227Z,6.30
2022-09-12T06:13:13.944Z,4.80
2022-09-12T06:15:40.406Z,5.30
2022-09-12T06:18:06.840Z,4.53
2022-09-12T06:20:36.151Z,4.90
2022-09-12T06:23:02.578Z,6.67
2022-09-12T06:25:29.580Z,5.47
2022-09-12T06:27:56.052Z,6.20
2022-09-12T06:30:25.510Z,6.07
2022-09-12T06:32:52.091Z,6.40
2022-09-12T06:35:19.008Z,6.23
2022-09-12T06:37:45.701Z,7.00
2022-09-12T06:40:12.428Z,6.60
2022-09-12T06:42:38.957Z,6.97
2022-09-12T06:45:05.724Z,5.53
2022-09-12T06:47:32.718Z,5.20
2022-09-12T06:49:59.185Z,6.50
2022-09-12T06:52:25.661Z,7.13
2022-09-12T06:54:52.097Z,6.30
2022-09-12T06:57:18.548Z,5.93
2022-09-12T06:59:45.008Z,7.47
2022-09-12T07:02:12.489Z,7.40
2022-09-12T07:04:39.038Z,6.57
2022-09-12T07:07:05.795Z,6.63
2022-09-12T07:09:32.229Z,8.13
2022-09-12T07:11:58.706Z,6.30
2022-09-12T07:14:26.088Z,6.77
2022-09-12T07:16:52.570Z,7.80
2022-09-12T07:19:19.039Z,8.97
2022-09-12T07:21:45.793Z,7.37
2022-09-12T07:24:12.245Z,7.63
2022-09-12T07:26:40.090Z,6.67
2022-09-12T07:29:35.475Z,8.37
2022-09-12T07:31:53.585Z,8.53
2022-09-12T07:34:20.040Z,7.70
2022-09-12T07:36:46.492Z,7.27
2022-09-12T07:39:12.977Z,7.90
2022-09-12T07:41:39.605Z,8.93
2022-09-12T07:44:07.166Z,8.23
2022-09-12T07:46:33.648Z,8.03
2022-09-12T07:49:01.075Z,10.50
2022-09-12T07:51:28.235Z,6.60
2022-09-12T07:53:56.270Z,8.73
2022-09-12T07:56:27.364Z,8.97
2022-09-12T07:58:56.869Z,9.10
2022-09-12T08:01:23.766Z,9.27
2022-09-12T08:03:53.350Z,8.60
2022-09-12T08:06:21.133Z,9.53
2022-09-12T08:08:48.187Z,9.07
2022-09-12T08:11:15.549Z,8.63
2022-09-12T08:13:42.918Z,8.37
2022-09-12T08:16:13.655Z,10.27
2022-09-12T08:18:40.882Z,8.83
2022-09-12T08:21:08.773Z,9.50
2022-09-12T08:23:35.274Z,9.30
2022-09-12T08:26:06.209Z,9.50
2022-09-12T08:28:34.193Z,10.00
2022-09-12T08:31:05.251Z,9.50
2022-09-12T08:33:35.722Z,8.87
2022-09-12T08:36:04.246Z,9.30
2022-09-12T08:38:30.856Z,10.73
2022-09-12T08:41:04.017Z,10.20
2022-09-12T08:43:31.040Z,10.07
2022-09-12T08:46:02.506Z,10.73
2022-09-12T08:48:29.548Z,9.70
2022-09-12T08:50:56.083Z,10.20
2022-09-12T08:53:23.373Z,10.63
2022-09-12T08:55:54.663Z,11.03
2022-09-12T08:58:22.752Z,11.30
2022-09-12T09:01:04.674Z,10.40
2022-09-12T09:03:37.191Z,9.10
2022-09-12T09:06:11.512Z,9.97
2022-09-12T09:08:46.720Z,10.40
2022-09-12T09:11:24.045Z,8.63
2022-09-12T09:14:15.204Z,7.97
2022-09-12T09:16:43.834Z,9.93
2022-09-12T09:19:21.605Z,9.00
2022-09-12T09:21:51.303Z,9.17
2022-09-12T09:24:20.146Z,8.60
2022-09-12T09:26:51.789Z,9.03
2022-09-12T09:29:23.909Z,9.77
2022-09-12T09:31:52.696Z,8.20
2022-09-12T09:34:20.751Z,8.30
2022-09-12T09:36:59.799Z,8.63
2022-09-12T09:39:37.414Z,8.57
2022-09-12T09:42:10.189Z,7.10
2022-09-12T09:44:36.862Z,7.43
2022-09-12T09:47:03.479Z,6.80
2022-09-12T09:49:31.509Z,6.70
2022-09-12T09:52:00.556Z,6.70
2022-09-12T09:54:49.466Z,6.10
2022-09-12T09:57:36.164Z,6.33
2022-09-12T10:00:21.867Z,6.10
2022-09-12T10:03:00.895Z,6.33
2022-09-12T10:05:28.609Z,6.53
2022-09-12T10:07:55.357Z,5.93
2022-09-12T10:10:25.338Z,5.60
2022-09-12T10:13:05.868Z,6.20
2022-09-12T10:15:34.752Z,6.20
2022-09-12T10:18:03.046Z,6.30
2022-09-12T10:20:45.393Z,6.40
2022-09-12T10:23:18.022Z,5.40
2022-09-12T10:25:48.547Z,4.77
2022-09-12T10:28:21.851Z,5.03
2022-09-12T10:30:52.810Z,5.30
2022-09-12T10:33:19.661Z,4.83
2022-09-12T10:35:48.496Z,5.13
2022-09-12T10:38:22.709Z,5.17
2022-09-12T10:40:55.923Z,3.77
2022-09-12T10:43:25.413Z,3.47
2022-09-12T10:45:52.158Z,4.43
2022-09-12T10:48:24.670Z,4.07
2022-09-12T10:50:51.896Z,5.13
2022-09-12T10:53:19.487Z,3.70
2022-09-12T10:56:04.703Z,4.63
2022-09-12T10:58:31.124Z,4.43
2022-09-12T11:01:02.344Z,4.07
2022-09-12T11:03:55.360Z,3.30
2022-09-12T11:06:25.120Z,3.00
2022-09-12T11:08:59.641Z,3.87
2022-09-12T11:11:55.596Z,3.23
2022-09-12T11:14:30.806Z,2.83
2022-09-12T11:17:13.414Z,4.03
2022-09-12T11:19:51.081Z,3.37
2022-09-12T11:22:23.418Z,3.43
2022-09-12T11:25:02.137Z,3.20
2022-09-12T11:27:34.036Z,3.20
2022-09-12T11:30:13.873Z,2.67
2022-09-12T11:32:43.327Z,3.00
2022-09-12T11:35:17.590Z,3.27
2022-09-12T11:37:44.268Z,3.63
2022-09-12T11:40:23.218Z,2.93
2022-09-12T11:42:51.424Z,3.50
2022-09-12T11:45:29.455Z,2.90
2022-09-12T11:47:59.884Z,2.87
2022-09-12T11:50:30.588Z,2.80
2022-09-12T11:53:17.103Z,2.20
2022-09-12T11:55:53.221Z,2.70
2022-09-12T11:58:22.231Z,2.43
2022-09-12T12:00:51.803Z,2.30
2022-09-12T12:03:24.108Z,2.53
2022-09-12T12:06:06.906Z,2.37
2022-09-12T12:08:38.113Z,2.60
2022-09-12T12:11:05.850Z,2.60
2022-09-12T12:13:53.940Z,2.60
2022-09-12T12:16:23.520Z,2.20
2022-09-12T12:18:57.852Z,2.47
2022-09-12T12:21:43.440Z,2.90
2022-09-12T12:24:09.857Z,3.30
2022-09-12T12:26:48.304Z,2.97
2022-09-12T12:29:17.980Z,3.33
2022-09-12T12:32:03.994Z,3.23
2022-09-12T12:34:57.129Z,2.83
2022-09-12T12:37:25.322Z,2.97
2022-09-12T12:40:21.461Z,3.20
2022-09-12T12:42:47.951Z,2.60
2022-09-12T12:45:18.141Z,2.97
2022-09-12T12:47:47.522Z,2.57
2022-09-12T12:50:16.806Z,2.43
2022-09-12T12:52:58.510Z,2.70
2022-09-12T12:55:26.472Z,2.80
2022-09-12T12:57:54.051Z,2.93
2022-09-12T13:00:20.540Z,2.70
2022-09-12T13:02:59.776Z,2.57
2022-09-12T13:05:27.535Z,2.87
2022-09-12T13:08:17.387Z,3.23
2022-09-12T13:10:55.125Z,3.27
2022-09-12T13:13:38.902Z,3.30
2022-09-12T13:16:05.517Z,2.67
2022-09-12T13:18:32.030Z,3.20
2022-09-12T13:21:01.291Z,2.10
2022-09-12T13:23:28.914Z,3.00
2022-09-12T13:25:56.372Z,2.37
2022-09-12T13:28:23.334Z,2.50
2022-09-12T13:31:08.530Z,2.73
2022-09-12T13:33:43.307Z,2.70
2022-09-12T13:36:15.947Z,2.83
2022-09-12T13:38:51.679Z,2.50
2022-09-12T13:41:18.165Z,2.57
2022-09-12T13:43:47.022Z,2.90
2022-09-12T13:46:16.500Z,2.87
2022-09-12T13:48:43.727Z,2.50
2022-09-12T13:51:19.041Z,2.73
2022-09-12T13:53:47.393Z,2.50
2022-09-12T13:56:17.721Z,2.60
2022-09-12T13:58:57.553Z,2.50
2022-09-12T14:01:25.091Z,2.63
2022-09-12T14:04:14.432Z,2.53
2022-09-12T14:06:45.546Z,2.70
2022-09-12T14:09:18.360Z,2.87
2022-09-12T14:11:47.276Z,2.30
2022-09-12T14:14:19.613Z,3.00
2022-09-12T14:16:46.104Z,2.70
2022-09-12T14:19:12.648Z,3.10
2022-09-12T14:21:39.236Z,2.53
2022-09-12T14:24:06.997Z,3.03
2022-09-12T14:26:35.039Z,2.30
2022-09-12T14:29:04.901Z,2.80
2022-09-12T14:31:32.366Z,2.90
2022-09-12T14:34:09.877Z,3.17
2022-09-12T14:36:40.099Z,3.10
2022-09-12T14:39:15.153Z,3.10
2022-09-12T14:41:41.935Z,2.70
2022-09-12T14:44:10.568Z,3.50
2022-09-12T14:46:38.792Z,2.43
2022-09-12T14:49:14.577Z,3.57
2022-09-12T14:51:49.372Z,3.30
2022-09-12T14:54:44.511Z,3.30
2022-09-12T14:57:29.898Z,2.70
2022-09-12T15:00:05.618Z,3.37
2022-09-12T15:02:32.998Z,2.93
2022-09-12T15:05:08.906Z,2.80
2022-09-12T15:07:39.988Z,2.70
2022-09-12T15:10:15.476Z,2.73
2022-09-12T15:12:42.124Z,3.30
2022-09-12T15:15:19.212Z,2.70
2022-09-12T15:17:45.722Z,2.80
2022-09-12T15:20:13.633Z,2.77
2022-09-12T15:22:40.573Z,3.17
2022-09-12T15:25:07.562Z,2.70
2022-09-12T15:27:34.105Z,3.00
2022-09-12T15:30:00.686Z,2.50
2022-09-12T15:32:29.183Z,2.90
2022-09-12T15:34:55.973Z,3.10
2022-09-12T15:37:24.205Z,2.80
2022-09-12T15:39:51.369Z,3.63
2022-09-12T15:42:19.771Z,2.87
2022-09-12T15:44:46.264Z,3.10
2022-09-12T15:47:13.504Z,2.90
2022-09-12T15:49:40.279Z,3.20
2022-09-12T15:52:07.569Z,2.97
2022-09-12T15:54:34.374Z,2.60
2022-09-12T15:57:00.832Z,3.00
2022-09-12T15:59:27.319Z,2.30
2022-09-12T16:01:53.998Z,2.90
2022-09-12T16:04:23.789Z,2.93
2022-09-12T16:06:50.639Z,3.33
2022-09-12T16:09:17.597Z,2.83
2022-09-12T16:11:45.147Z,2.90
2022-09-12T16:14:15.319Z,2.80
2022-09-12T16:16:42.308Z,3.17
2022-09-12T16:19:12.337Z,2.67
2022-09-12T16:21:38.840Z,3.13
2022-09-12T16:24:05.461Z,3.03
2022-09-12T16:26:31.983Z,3.37
2022-09-12T16:28:59.122Z,3.10
2022-09-12T16:31:26.514Z,3.47
2022-09-12T16:33:53.172Z,3.40
2022-09-12T16:36:20.249Z,3.20
2022-09-12T16:38:48.104Z,3.43
2022-09-12T16:41:15.706Z,3.20
2022-09-12T16:43:43.015Z,3.40
2022-09-12T16:46:13.564Z,3.10
2022-09-12T16:48:49.353Z,3.33
2022-09-12T16:51:19.920Z,3.20
2022-09-12T16:53:46.897Z,3.20
2022-09-12T16:56:13.424Z,3.00
2022-09-12T16:58:42.215Z,2.93
2022-09-12T17:01:16.775Z,3.30
2022-09-12T17:03:43.369Z,3.70
2022-09-12T17:06:09.894Z,2.83
2022-09-12T17:08:38.097Z,3.47
2022-09-12T17:11:09.180Z,3.20
2022-09-12T17:14:00.057Z,3.77
2022-09-12T17:16:22.445Z,3.07
2022-09-12T17:18:49.586Z,2.90
2022-09-12T17:21:16.117Z,4.20
2022-09-12T17:23:42.773Z,3.77
2022-09-12T17:26:10.178Z,3.80
2022-09-12T17:28:37.372Z,4.20
2022-09-12T17:31:05.283Z,3.57
2022-09-12T17:33:32.079Z,3.93
2022-09-12T17:36:02.901Z,3.63
2022-09-12T17:38:31.879Z,3.80
2022-09-12T17:41:05.013Z,4.00
2022-09-12T17:43:31.707Z,4.10
2022-09-12T17:45:58.520Z,3.80
2022-09-12T17:48:25.133Z,3.67
2022-09-12T17:50:52.119Z,4.10
2022-09-12T17:53:18.640Z,4.83
2022-09-12T17:55:45.216Z,3.80
2022-09-12T17:58:12.643Z,4.20
2022-09-12T18:00:57.865Z,4.33
2022-09-12T18:03:24.525Z,4.20
2022-09-12T18:05:55.393Z,3.50
2022-09-12T18:08:23.233Z,4.40
2022-09-12T18:10:51.038Z,3.90
2022-09-12T18:13:17.849Z,3.40
2022-09-12T18:15:44.378Z,3.60
2022-09-12T18:18:10.870Z,4.57
2022-09-12T18:20:37.381Z,4.53
2022-09-12T18:23:04.781Z,4.53
2022-09-12T18:25:31.272Z,4.80
2022-09-12T18:27:57.804Z,4.07
2022-09-12T18:30:24.309Z,5.30
2022-09-12T18:32:50.951Z,5.43
2022-09-12T18:35:17.600Z,6.43
2022-09-12T18:37:44.904Z,6.70
2022-09-12T18:40:11.473Z,7.47
2022-09-12T18:42:38.016Z,7.80
2022-09-12T18:45:04.697Z,7.50
2022-09-12T18:47:31.248Z,8.13
2022-09-12T18:49:58.117Z,7.10
2022-09-12T18:52:24.714Z,6.10
2022-09-12T18:54:51.242Z,5.13
2022-09-12T18:57:17.768Z,6.00
2022-09-12T18:59:44.661Z,7.87
2022-09-12T19:02:15.790Z,5.70
2022-09-12T19:04:42.397Z,4.80
2022-09-12T19:07:08.955Z,5.00
2022-09-12T19:09:35.450Z,5.10
2022-09-12T19:12:02.081Z,4.93
2022-09-12T19:14:28.615Z,5.03
2022-09-12T19:16:55.187Z,6.37
2022-09-12T19:19:21.752Z,9.67
2022-09-12T19:21:48.336Z,9.60
2022-09-12T19:24:16.217Z,8.73
2022-09-12T19:26:42.762Z,5.97
2022-09-12T19:29:10.315Z,5.80
2022-09-12T19:31:37.026Z,5.70
2022-09-12T19:34:05.050Z,6.27
2022-09-12T19:36:47.702Z,5.27
2022-09-12T19:39:15.140Z,4.90
2022-09-12T19:41:41.675Z,5.13
2022-09-12T19:44:08.207Z,4.97
2022-09-12T19:46:34.890Z,4.33
2022-09-12T19:49:01.566Z,5.13
2022-09-12T19:51:28.440Z,4.97
2022-09-12T19:53:55.023Z,4.30
2022-09-12T19:56:21.899Z,5.60
2022-09-12T19:58:53.499Z,5.37
2022-09-12T20:01:29.692Z,4.73
2022-09-12T20:03:56.572Z,4.37
2022-09-12T20:06:23.228Z,4.80
2022-09-12T20:08:49.789Z,4.43
2022-09-12T20:11:20.230Z,5.50
2022-09-12T20:13:47.221Z,4.50
2022-09-12T20:16:21.694Z,4.60
2022-09-12T20:18:52.117Z,4.43
2022-09-12T20:21:19.469Z,4.70
2022-09-12T20:23:46.640Z,3.60
2022-09-12T20:26:13.795Z,4.90
2022-09-12T20:28:41.135Z,4.53
2022-09-12T20:31:10.281Z,3.87
2022-09-12T20:33:36.803Z,4.03
2022-09-12T20:36:04.421Z,4.60
2022-09-12T20:38:30.881Z,5.13
2022-09-12T20:40:57.447Z,5.03
2022-09-12T20:43:23.931Z,4.87
2022-09-12T20:45:50.537Z,4.53
2022-09-12T20:48:17.127Z,4.50
2022-09-12T20:50:43.633Z,4.47
2022-09-12T20:53:10.165Z,5.20
2022-09-12T20:55:36.897Z,6.00
2022-09-12T20:58:03.523Z,6.63
2022-09-12T21:00:30.507Z,5.73
2022-09-12T21:02:57.318Z,5.63
2022-09-12T21:05:23.871Z,5.60
2022-09-12T21:07:50.390Z,6.20
2022-09-12T21:10:17.048Z,5.63
2022-09-12T21:12:43.484Z,5.70
2022-09-12T21:15:10.315Z,6.00
2022-09-12T21:17:36.786Z,5.63
2022-09-12T21:20:06.033Z,6.43
2022-09-12T21:22:34.562Z,6.03
2022-09-12T21:25:01.156Z,4.90
2022-09-12T21:27:27.768Z,5.23
2022-09-12T21:29:54.573Z,5.23
2022-09-12T21:32:21.208Z,5.20
2022-09-12T21:34:47.910Z,4.10
2022-09-12T21:37:14.433Z,5.17
2022-09-12T21:39:41.029Z,3.90
2022-09-12T21:42:07.474Z,5.67
2022-09-12T21:44:33.953Z,5.23
2022-09-12T21:47:00.488Z,5.47
2022-09-12T21:49:26.965Z,4.07
2022-09-12T21:51:53.433Z,4.50
2022-09-12T21:54:19.872Z,4.67
2022-09-12T21:56:46.405Z,3.73
2022-09-12T21:59:12.848Z,4.57
2022-09-12T22:01:39.345Z,4.77
2022-09-12T22:04:05.785Z,5.10
2022-09-12T22:06:32.292Z,4.40
2022-09-12T22:08:58.736Z,4.03
2022-09-12T22:11:25.221Z,3.60
2022-09-12T22:13:51.688Z,4.17
2022-09-12T22:16:18.624Z,4.00
2022-09-12T22:18:48.071Z,4.50
2022-09-12T22:21:15.872Z,4.57
2022-09-12T22:24:01.083Z,4.00
2022-09-12T22:26:27.614Z,4.00
2022-09-12T22:28:54.471Z,3.57
2022-09-12T22:31:21.032Z,3.50
2022-09-12T22:33:48.612Z,4.17
2022-09-12T22:36:15.431Z,3.77
2022-09-12T22:38:41.899Z,3.70
2022-09-12T22:41:09.789Z,4.40
2022-09-12T22:43:36.591Z,3.80
2022-09-12T22:46:09.647Z,4.37
2022-09-12T22:48:37.073Z,5.20
2022-09-12T22:51:03.892Z,4.33
2022-09-12T22:53:30.400Z,4.40
2022-09-12T22:55:57.126Z,4.03
2022-09-12T22:58:23.592Z,4.33
2022-09-12T23:00:50.721Z,4.13
2022-09-12T23:03:17.562Z,4.73
2022-09-12T23:05:45.537Z,4.40
2022-09-12T23:08:12.157Z,4.90
2022-09-12T23:10:38.768Z,4.17
2022-09-12T23:13:05.325Z,3.73
2022-09-12T23:15:32.031Z,4.30
2022-09-12T23:17:58.801Z,4.63
2022-09-12T23:20:25.425Z,4.53
2022-09-12T23:22:52.101Z,4.50
2022-09-12T23:25:18.531Z,5.30
2022-09-12T23:27:45.004Z,4.90
2022-09-12T23:30:12.131Z,4.20
2022-09-12T23:32:38.597Z,5.07
2022-09-12T23:35:05.358Z,4.60
2022-09-12T23:37:31.802Z,4.20
2022-09-12T23:39:58.289Z,4.60
2022-09-12T23:42:24.899Z,4.60
2022-09-12T23:44:51.333Z,4.57
2022-09-12T23:47:18.437Z,4.60
2022-09-12T23:49:45.823Z,5.40
2022-09-12T23:52:12.259Z,5.13
2022-09-12T23:54:38.720Z,5.00
2022-09-12T23:57:05.214Z,4.30
2022-09-12T23:59:31.754Z,4.33
